Albany, OK

2:39 AM CDT on September 03, 2014 (GMT -0500)
Duplex, Texas | Change Station
CLOSE
Current Station
Personal Weather Station
Location: Ivanhoe, TX
Elevation: 617 ft
Nearby Weather Stations

Elev 617 ft 33.77 °N, 96.13 °W | Updated 4 minutes ago

Clear
Clear
82.2 °F
Feels Like 83 °F
N
0.0
Wind Variable Wind from East
Gusts 0.0 mph

Today
High -- | Low -- °F
--% Chance of Precip.
Yesterday
High -- | Low -- °F
Precip. -- in
6:59 AM 7:47 PM
First Quarter, 59% visible
Pressure 29.95 in
Visibility 10.0 miles
Clouds Clear
Heat Index 83 °F
Dew Point 63 °F
Humidity 53%
Rainfall 0.00 in
Snow Depth Not available.
UV 0.0 out of 12
Pollen 11.00 out of 12
Air Quality Not available.
Flu Activity Not available.
METAR KDUA 030715Z AUTO 17006KT 10SM CLR 25/22 A2995 RMK AO2

More Conditions Fewer Conditions

Pressure 29.95 in
Visibility 10.0 miles
Clouds Clear
Heat Index 83 °F
Dew Point 63 °F
Humidity 53%
Rainfall 0.00 in
Snow Depth Not available.
UV 0.0 out of 12
Pollen 11.00 out of 12
Air Quality Not available.
Flu Activity Not available.
METAR KDUA 030715Z AUTO 17006KT 10SM CLR 25/22 A2995 RMK AO2

More Conditions Fewer Conditions

10-Day Weather Forecast

Almanac

Astronomy

Sep. 03, 2014 Rise Set
Actual Time 6:59 AM CDT 7:47 PM CDT
Civil Twilight 6:34 AM CDT 8:12 PM CDT
Nautical Twilight 6:04 AM CDT 8:42 PM CDT
Astronomical Twilight 5:33 AM CDT 9:13 PM CDT
Moon 3:21 PM CDT 1:03 AM CDT
Length of Visible Light 13h 38m
Length of Day
12h 47m
Tomorrow will be 2m 2s shorter.
First Quarter, 59% of the Moon is Illuminated
Today
First Quarter
Sep 8
Full
Sep 15
Last Quarter
Sep 24
New
Oct 1
First Quarter

Today's Extremes

State Highs State Lows

Community

WunderPhotos

Upload Photos

1,749,891 photos uploaded!

Nearby

Snow Depth

Station Depth Elevation
No new snow has been reported.

Earthquake Activity

City Distance Mag. Time & Date
Jones, Oklahoma 134 miles 3.1 1:49 PM CDT
2014-08-31
Minimum magnitude displayed is 2.5.

Coastal Water Temperatures

Place Temperature
No Stations Reporting

Nearby Weather Stations